Time;durP1;ratioP1;P1;durP2;ratioP2;P2;SDS_P1;SDS_P2;PMS_P1;PMS_P2;Temp;Humidity;BMP_temperature;BMP_pressure;BME280_temperature;BME280_humidity;BME280_pressure;Samples;Min_cycle;Max_cycle;Signal;HPM_P1;HPM_P2
2023/06/07 00:01:59;;;;;;;14.60;5.55;;;;;;;;;;5029390;28;20037;-63
2023/06/07 00:04:30;;;;;;;15.38;6.20;;;;;;;;;;5044958;28;20412;-63
2023/06/07 00:07:02;;;;;;;10.15;5.32;;;;;;;;;;5053853;28;20063;-63
2023/06/07 00:09:32;;;;;;;16.25;5.75;;;;;;;;;;5036996;28;20722;-63
2023/06/07 00:12:02;;;;;;;17.42;5.70;;;;;;;;;;5037062;28;20419;-64
2023/06/07 00:14:35;;;;;;;11.82;5.35;;;;;;;;;;5072646;28;20045;-63
2023/06/07 00:17:05;;;;;;;14.63;5.60;;;;;;;;;;5072497;28;20051;-63
2023/06/07 00:19:35;;;;;;;11.93;5.72;;;;;;;;;;5020634;28;20420;-63
2023/06/07 00:22:08;;;;;;;19.55;6.93;;;;;;;;;;5072185;28;20040;-64
2023/06/07 00:24:39;;;;;;;15.50;5.70;;;;;;;;;;5053294;28;20143;-64
2023/06/07 00:27:09;;;;;;;12.57;5.95;;;;;;;;;;5072330;28;20036;-64
2023/06/07 00:29:39;;;;;;;12.93;6.03;;;;;;;;;;4971662;28;20063;-65
2023/06/07 00:32:12;;;;;;;18.90;6.18;;;;;;;;;;5037793;28;20060;-64
2023/06/07 00:34:42;;;;;;;17.60;6.90;;;;;;;;;;5071679;28;20045;-64
2023/06/07 00:37:13;;;;;;;14.57;6.57;;;;;;;;;;5037109;28;20052;-64
2023/06/07 00:39:43;;;;;;;14.20;6.43;;;;;;;;;;5071640;28;20516;-64
2023/06/07 00:42:13;;;;;;;17.55;6.00;;;;;;;;;;5009693;28;20775;-63
2023/06/07 00:44:43;;;;;;;13.48;6.20;;;;;;;;;;4992919;28;20466;-63
2023/06/07 00:47:14;;;;;;;11.88;5.97;;;;;;;;;;5009950;28;20058;-64
2023/06/07 00:49:45;;;;;;;18.67;6.03;;;;;;;;;;4989630;28;20050;-63
2023/06/07 00:52:15;;;;;;;13.55;6.78;;;;;;;;;;4990365;28;20054;-63
2023/06/07 00:54:46;;;;;;;17.45;6.72;;;;;;;;;;4918960;28;20522;-63
2023/06/07 00:57:17;;;;;;;15.90;7.22;;;;;;;;;;4951461;28;20416;-63
2023/06/07 00:59:47;;;;;;;15.38;6.40;;;;;;;;;;4934764;29;20051;-63
2023/06/07 01:02:21;;;;;;;14.35;6.65;;;;;;;;;;4951470;28;20055;-62
2023/06/07 01:04:52;;;;;;;14.35;6.80;;;;;;;;;;4950208;29;20574;-64
2023/06/07 01:07:24;;;;;;;17.75;6.75;;;;;;;;;;4967313;28;20051;-63
2023/06/07 01:09:55;;;;;;;19.50;7.57;;;;;;;;;;4951263;28;20078;-63
2023/06/07 01:12:28;;;;;;;16.15;6.95;;;;;;;;;;4918832;28;20059;-63
2023/06/07 01:15:00;;;;;;;15.93;6.97;;;;;;;;;;4970161;28;20051;-64
2023/06/07 01:17:31;;;;;;;19.02;6.57;;;;;;;;;;4939340;28;20054;-63
2023/06/07 01:20:04;;;;;;;18.15;6.68;;;;;;;;;;4938255;28;20127;-64
2023/06/07 01:22:35;;;;;;;15.60;6.90;;;;;;;;;;4954890;28;20062;-63
2023/06/07 01:25:05;;;;;;;19.35;7.65;;;;;;;;;;4922616;28;20507;-63
2023/06/07 01:27:39;;;;;;;14.85;6.57;;;;;;;;;;4966053;28;20069;-61
2023/06/07 01:30:12;;;;;;;16.35;7.25;;;;;;;;;;4989334;28;20058;-63
2023/06/07 01:32:44;;;;;;;23.50;7.93;;;;;;;;;;4977212;28;20066;-62
2023/06/07 01:35:15;;;;;;;20.15;7.53;;;;;;;;;;4937966;28;20427;-63
2023/06/07 01:37:47;;;;;;;15.95;7.10;;;;;;;;;;4982788;28;20127;-63
2023/06/07 01:40:18;;;;;;;20.17;7.53;;;;;;;;;;4934410;29;20051;-63
2023/06/07 01:42:50;;;;;;;19.75;7.55;;;;;;;;;;4919120;29;20051;-62
2023/06/07 01:45:20;;;;;;;;;;;;;;;;;;4951258;29;20547;-63
2023/06/07 01:47:51;;;;;;;24.50;7.38;;;;;;;;;;4950793;29;19942;-64
2023/06/07 01:50:22;;;;;;;18.10;7.15;;;;;;;;;;4927360;29;20040;-63
2023/06/07 01:52:52;;;;;;;17.55;6.90;;;;;;;;;;4903227;29;20123;-64
2023/06/07 01:55:23;;;;;;;19.27;7.03;;;;;;;;;;4950917;29;20066;-64
2023/06/07 01:58:13;;;;;;;19.02;7.03;;;;;;;;;;4934864;29;20066;-64
2023/06/07 02:01:19;;;;;;;17.30;7.60;;;;;;;;;;4931509;29;20040;-63
2023/06/07 02:03:55;;;;;;;23.23;7.78;;;;;;;;;;4896964;29;20424;-63
2023/06/07 02:06:30;;;;;;;20.33;7.53;;;;;;;;;;4912164;29;20540;-63
2023/06/07 02:09:09;;;;;;;21.20;7.82;;;;;;;;;;4881522;29;20067;-62
2023/06/07 02:11:41;;;;;;;20.98;7.10;;;;;;;;;;4931482;29;20520;-62
2023/06/07 02:14:12;;;;;;;19.25;7.13;;;;;;;;;;4916053;29;20067;-63
2023/06/07 02:16:43;;;;;;;24.10;7.22;;;;;;;;;;4893548;29;20501;-62
2023/06/07 02:19:16;;;;;;;22.25;7.05;;;;;;;;;;4912772;29;20060;-62
2023/06/07 02:21:50;;;;;;;17.38;7.55;;;;;;;;;;4896276;29;20052;-63
2023/06/07 02:24:20;;;;;;;16.33;7.50;;;;;;;;;;4928348;29;20672;-66
2023/06/07 02:26:53;;;;;;;17.17;7.50;;;;;;;;;;4917116;29;20512;-63
2023/06/07 02:29:24;;;;;;;18.77;7.88;;;;;;;;;;4934813;29;20058;-63
2023/06/07 02:31:57;;;;;;;19.13;7.40;;;;;;;;;;4934841;29;20055;-63
2023/06/07 02:34:29;;;;;;;22.65;7.97;;;;;;;;;;4934667;29;20515;-63
2023/06/07 02:37:00;;;;;;;16.73;7.68;;;;;;;;;;4896605;29;20044;-63
2023/06/07 02:39:30;;;;;;;16.88;7.78;;;;;;;;;;4865771;29;20056;-63
2023/06/07 02:42:00;;;;;;;19.67;8.40;;;;;;;;;;4949973;28;20058;-63
2023/06/07 02:44:30;;;;;;;19.42;8.05;;;;;;;;;;4937821;29;20058;-63
2023/06/07 02:47:00;;;;;;;17.90;7.63;;;;;;;;;;4934725;29;20047;-62
2023/06/07 02:49:32;;;;;;;19.33;7.45;;;;;;;;;;4918593;29;20060;-63
2023/06/07 02:52:04;;;;;;;20.35;7.63;;;;;;;;;;4915275;29;20161;-63
2023/06/07 02:54:35;;;;;;;18.52;7.72;;;;;;;;;;4904059;29;20065;-63
2023/06/07 02:57:06;;;;;;;21.27;7.97;;;;;;;;;;4881357;29;20053;-63
2023/06/07 02:59:39;;;;;;;15.07;7.82;;;;;;;;;;4865533;29;20061;-63
2023/06/07 03:02:12;;;;;;;13.65;6.90;;;;;;;;;;4873260;29;20049;-64
2023/06/07 03:04:46;;;;;;;16.45;7.45;;;;;;;;;;4859009;29;20061;-63
2023/06/07 03:07:16;;;;;;;14.82;7.32;;;;;;;;;;4865326;29;20060;-65
2023/06/07 03:09:47;;;;;;;15.05;6.70;;;;;;;;;;4896466;29;20052;-63
2023/06/07 03:12:22;;;;;;;15.90;7.72;;;;;;;;;;4865996;29;20045;-63
2023/06/07 03:14:56;;;;;;;19.50;7.82;;;;;;;;;;4859613;29;20076;-63
2023/06/07 03:17:27;;;;;;;15.52;7.80;;;;;;;;;;4862034;29;20063;-64
2023/06/07 03:20:00;;;;;;;16.40;7.70;;;;;;;;;;4877351;29;20049;-62
2023/06/07 03:22:31;;;;;;;22.77;8.02;;;;;;;;;;4877288;29;20548;-63
2023/06/07 03:25:03;;;;;;;19.42;8.55;;;;;;;;;;4895714;29;20057;-63
2023/06/07 03:27:34;;;;;;;16.35;7.80;;;;;;;;;;4895703;29;20208;-63
2023/06/07 03:30:17;;;;;;;14.32;6.95;;;;;;;;;;4918166;29;20060;-64
2023/06/07 03:32:49;;;;;;;14.80;6.88;;;;;;;;;;4895276;29;20520;-63
2023/06/07 03:35:20;;;;;;;14.18;7.47;;;;;;;;;;4914080;29;20048;-62
2023/06/07 03:37:51;;;;;;;19.13;7.75;;;;;;;;;;4882554;29;20055;-63
2023/06/07 03:40:25;;;;;;;16.75;8.05;;;;;;;;;;4895051;29;20056;-64
2023/06/07 03:42:59;;;;;;;17.85;7.43;;;;;;;;;;4899822;29;20460;-62
2023/06/07 03:45:30;;;;;;;18.83;8.32;;;;;;;;;;4898529;29;20060;-63
2023/06/07 03:48:08;;;;;;;19.00;7.70;;;;;;;;;;4914053;29;20401;-63
2023/06/07 03:50:38;;;;;;;16.15;7.63;;;;;;;;;;4884084;29;20048;-64
2023/06/07 03:53:12;;;;;;;13.90;7.15;;;;;;;;;;4862495;29;20057;-64
2023/06/07 03:55:48;;;;;;;14.98;7.32;;;;;;;;;;4848306;29;20410;-63
2023/06/07 03:58:23;;;;;;;18.52;6.90;;;;;;;;;;4876254;29;20057;-63
2023/06/07 04:00:54;;;;;;;15.50;6.95;;;;;;;;;;4876243;29;20064;-63
2023/06/07 04:03:25;;;;;;;13.35;6.30;;;;;;;;;;4890604;29;20548;-63
2023/06/07 04:05:59;;;;;;;16.20;7.28;;;;;;;;;;4846923;29;20050;-62
2023/06/07 04:08:29;;;;;;;14.85;6.95;;;;;;;;;;4876015;29;20517;-62
2023/06/07 04:10:59;;;;;;;14.07;6.63;;;;;;;;;;4876205;29;20053;-63
2023/06/07 04:13:30;;;;;;;18.60;7.60;;;;;;;;;;4882053;29;20063;-63
2023/06/07 04:16:01;;;;;;;17.52;6.68;;;;;;;;;;4876612;29;20408;-63
2023/06/07 04:18:31;;;;;;;17.23;7.43;;;;;;;;;;4910242;29;20056;-63
2023/06/07 04:21:01;;;;;;;19.27;7.20;;;;;;;;;;4874350;29;20074;-63
2023/06/07 04:23:32;;;;;;;14.88;7.07;;;;;;;;;;4906514;29;20796;-63
2023/06/07 04:26:06;;;;;;;17.77;6.95;;;;;;;;;;4894666;29;20071;-63
2023/06/07 04:28:40;;;;;;;18.05;7.85;;;;;;;;;;4875831;29;20053;-63
2023/06/07 04:31:12;;;;;;;14.80;7.07;;;;;;;;;;4860166;29;20053;-64
2023/06/07 04:33:46;;;;;;;17.33;7.13;;;;;;;;;;4886963;29;20153;-64
2023/06/07 04:36:18;;;;;;;19.77;7.65;;;;;;;;;;4901997;29;20057;-64
2023/06/07 04:38:49;;;;;;;15.93;6.30;;;;;;;;;;4913183;29;20055;-63
2023/06/07 04:41:30;;;;;;;15.15;6.45;;;;;;;;;;4913004;29;20516;-63
2023/06/07 04:44:03;;;;;;;13.85;6.53;;;;;;;;;;4875543;29;20053;-63
2023/06/07 04:46:39;;;;;;;18.90;6.40;;;;;;;;;;4888040;29;20060;-63
2023/06/07 04:49:17;;;;;;;12.35;5.95;;;;;;;;;;4893989;29;20053;-64
2023/06/07 04:51:48;;;;;;;13.90;6.63;;;;;;;;;;4849127;29;20049;-62
2023/06/07 04:54:19;;;;;;;16.08;6.30;;;;;;;;;;4875503;29;20330;-63
2023/06/07 04:56:56;;;;;;;13.13;6.07;;;;;;;;;;4875102;29;20056;-62
2023/06/07 04:59:34;;;;;;;18.50;6.95;;;;;;;;;;4808511;29;20412;-63
2023/06/07 05:02:10;;;;;;;13.30;6.75;;;;;;;;;;4835701;29;20419;-63
2023/06/07 05:04:42;;;;;;;13.77;6.18;;;;;;;;;;4838030;29;20054;-63
2023/06/07 05:07:15;;;;;;;13.15;6.97;;;;;;;;;;4801809;29;20066;-62
2023/06/07 05:09:50;;;;;;;13.52;6.80;;;;;;;;;;4830250;29;20054;-63
2023/06/07 05:12:23;;;;;;;14.52;6.18;;;;;;;;;;4788790;29;20062;-62
2023/06/07 05:14:53;;;;;;;16.13;6.22;;;;;;;;;;4805068;29;20065;-63
2023/06/07 05:17:27;;;;;;;16.65;6.65;;;;;;;;;;4840947;29;20406;-63
2023/06/07 05:19:57;;;;;;;22.17;7.50;;;;;;;;;;4844968;29;20055;-62
2023/06/07 05:22:28;;;;;;;14.73;6.40;;;;;;;;;;4856443;29;20050;-63
2023/06/07 05:24:58;;;;;;;14.80;6.45;;;;;;;;;;4824511;29;20126;-62
2023/06/07 05:27:30;;;;;;;14.30;6.53;;;;;;;;;;4837839;29;20054;-63
2023/06/07 05:30:00;;;;;;;14.07;6.50;;;;;;;;;;4838307;29;20430;-63
2023/06/07 05:32:34;;;;;;;13.85;6.82;;;;;;;;;;4874732;29;20596;-62
2023/06/07 05:35:05;;;;;;;14.65;6.88;;;;;;;;;;4896676;29;20053;-65
2023/06/07 05:37:35;;;;;;;14.55;6.47;;;;;;;;;;4875209;29;20054;-63
2023/06/07 05:40:08;;;;;;;20.15;6.80;;;;;;;;;;4825676;29;20066;-63
2023/06/07 05:42:38;;;;;;;17.10;5.93;;;;;;;;;;4840257;29;20494;-62
2023/06/07 05:45:10;;;;;;;12.77;5.65;;;;;;;;;;4838105;29;20175;-63
2023/06/07 05:47:41;;;;;;;13.25;6.05;;;;;;;;;;4828192;29;20077;-62
2023/06/07 05:50:12;;;;;;;14.05;6.10;;;;;;;;;;4857294;29;20062;-63
2023/06/07 05:52:45;;;;;;;10.38;6.35;;;;;;;;;;4856218;29;20045;-63
2023/06/07 05:55:16;;;;;;;15.48;6.20;;;;;;;;;;4856375;29;20131;-63
2023/06/07 05:57:46;;;;;;;13.27;6.65;;;;;;;;;;4871736;29;20057;-63
2023/06/07 06:00:17;;;;;;;16.60;6.93;;;;;;;;;;4868400;29;20068;-62
2023/06/07 06:02:48;;;;;;;17.75;6.50;;;;;;;;;;4878911;29;20434;-63
2023/06/07 06:05:21;;;;;;;13.80;6.47;;;;;;;;;;4848609;29;20061;-63
2023/06/07 06:07:51;;;;;;;17.65;6.68;;;;;;;;;;4863037;29;20461;-63
2023/06/07 06:10:22;;;;;;;17.58;6.50;;;;;;;;;;4856429;29;20065;-63
2023/06/07 06:12:52;;;;;;;17.98;7.18;;;;;;;;;;4855720;29;20046;-63
2023/06/07 06:15:22;;;;;;;21.48;8.80;;;;;;;;;;4861038;29;20785;-63
2023/06/07 06:17:55;;;;;;;15.68;6.72;;;;;;;;;;4878104;29;20201;-63
2023/06/07 06:20:25;;;;;;;14.88;7.50;;;;;;;;;;4888550;29;20075;-63
2023/06/07 06:22:56;;;;;;;13.98;6.85;;;;;;;;;;4917586;29;20060;-63
2023/06/07 06:25:28;;;;;;;15.18;7.38;;;;;;;;;;4934945;29;20063;-62
2023/06/07 06:27:58;;;;;;;15.77;6.93;;;;;;;;;;4950105;28;20058;-63
2023/06/07 06:30:29;;;;;;;12.35;6.00;;;;;;;;;;5013669;28;20058;-63
2023/06/07 06:33:01;;;;;;;13.93;6.65;;;;;;;;;;4999331;28;20056;-64
2023/06/07 06:35:35;;;;;;;16.15;6.75;;;;;;;;;;5031971;28;20068;-63
2023/06/07 06:38:08;;;;;;;14.63;6.35;;;;;;;;;;5032295;28;20053;-63
2023/06/07 06:40:39;;;;;;;15.70;6.75;;;;;;;;;;4982652;28;20493;-63
2023/06/07 06:43:10;;;;;;;17.48;6.50;;;;;;;;;;4982953;28;20069;-63
2023/06/07 06:45:47;;;;;;;13.27;6.53;;;;;;;;;;4976999;28;20057;-62
2023/06/07 06:48:17;;;;;;;13.75;7.10;;;;;;;;;;4972401;28;20065;-62
2023/06/07 06:50:49;;;;;;;11.88;6.18;;;;;;;;;;5012239;28;20080;-63
2023/06/07 06:53:21;;;;;;;14.77;6.43;;;;;;;;;;4995486;28;20074;-62
2023/06/07 06:55:51;;;;;;;15.57;6.65;;;;;;;;;;4995518;28;20057;-63
2023/06/07 06:58:22;;;;;;;12.80;6.07;;;;;;;;;;5011782;28;20445;-64
2023/06/07 07:00:53;;;;;;;14.68;5.97;;;;;;;;;;5011995;28;20072;-62
2023/06/07 07:03:23;;;;;;;13.63;5.72;;;;;;;;;;4996198;28;20069;-62
2023/06/07 07:05:53;;;;;;;12.13;6.20;;;;;;;;;;4995305;28;20078;-63
2023/06/07 07:08:25;;;;;;;13.65;6.00;;;;;;;;;;4962916;28;20057;-63
2023/06/07 07:10:56;;;;;;;12.15;5.88;;;;;;;;;;4947198;28;20069;-63
2023/06/07 07:13:28;;;;;;;;;;;;;;;;;;4979407;28;20057;-62
2023/06/07 07:15:58;;;;;;;13.82;5.63;;;;;;;;;;5011285;28;19921;-63
2023/06/07 07:18:29;;;;;;;12.05;6.00;;;;;;;;;;4979475;28;20064;-63
2023/06/07 07:20:59;;;;;;;10.45;5.60;;;;;;;;;;5011651;28;20458;-62
2023/06/07 07:23:31;;;;;;;15.15;6.35;;;;;;;;;;4963656;28;20049;-63
2023/06/07 07:26:01;;;;;;;11.68;5.97;;;;;;;;;;5073577;28;20081;-63
2023/06/07 07:28:31;;;;;;;11.60;5.63;;;;;;;;;;5073671;28;20930;-62
2023/06/07 07:31:01;;;;;;;13.25;5.88;;;;;;;;;;5038882;28;20063;-63
2023/06/07 07:33:31;;;;;;;12.88;6.00;;;;;;;;;;4957397;28;20055;-62
2023/06/07 07:36:04;;;;;;;14.23;6.22;;;;;;;;;;5073726;28;20509;-62
2023/06/07 07:38:37;;;;;;;14.02;6.63;;;;;;;;;;5073087;28;20519;-62
2023/06/07 07:41:09;;;;;;;14.05;6.18;;;;;;;;;;5073227;28;20048;-62
2023/06/07 07:43:39;;;;;;;11.73;5.85;;;;;;;;;;5037929;28;20404;-62
2023/06/07 07:46:11;;;;;;;12.98;5.70;;;;;;;;;;5073401;28;20055;-62
2023/06/07 07:48:41;;;;;;;17.48;6.20;;;;;;;;;;5037665;28;20067;-62
2023/06/07 07:51:12;;;;;;;13.20;5.78;;;;;;;;;;5073147;28;20056;-62
2023/06/07 07:53:42;;;;;;;12.32;5.32;;;;;;;;;;5021111;28;20040;-63
2023/06/07 07:56:13;;;;;;;15.20;6.50;;;;;;;;;;5010836;28;20054;-62
2023/06/07 07:58:51;;;;;;;11.10;6.03;;;;;;;;;;4978253;28;20060;-63
2023/06/07 08:01:22;;;;;;;12.25;6.20;;;;;;;;;;5010608;28;20056;-62
2023/06/07 08:03:52;;;;;;;13.27;6.07;;;;;;;;;;5010761;28;20046;-63
2023/06/07 08:06:22;;;;;;;18.90;6.70;;;;;;;;;;4994347;28;20054;-62
2023/06/07 08:08:53;;;;;;;14.32;6.80;;;;;;;;;;4994022;28;20509;-63
2023/06/07 08:11:25;;;;;;;15.60;6.15;;;;;;;;;;4994450;28;20057;-63
2023/06/07 08:13:55;;;;;;;;;;;;;;;;;;4994677;28;20062;-63
2023/06/07 08:16:25;;;;;;;12.77;6.30;;;;;;;;;;5010568;28;19929;-63
2023/06/07 08:18:59;;;;;;;11.38;5.80;;;;;;;;;;4994194;28;20058;-62
2023/06/07 08:21:29;;;;;;;13.35;6.32;;;;;;;;;;4977654;28;20506;-62
2023/06/07 08:24:00;;;;;;;16.35;6.10;;;;;;;;;;4977294;28;20050;-63
2023/06/07 08:26:30;;;;;;;13.52;6.18;;;;;;;;;;5010237;28;20084;-63
2023/06/07 08:29:00;;;;;;;13.95;6.13;;;;;;;;;;4978468;28;20050;-63
2023/06/07 08:31:31;;;;;;;10.93;5.70;;;;;;;;;;4961580;28;20115;-63
2023/06/07 08:34:01;;;;;;;12.63;5.93;;;;;;;;;;4975567;28;20045;-63
2023/06/07 08:36:32;;;;;;;13.10;6.28;;;;;;;;;;5050097;28;20041;-64
2023/06/07 08:39:02;;;;;;;13.32;6.28;;;;;;;;;;5032981;28;20053;-64
2023/06/07 08:41:33;;;;;;;11.30;5.45;;;;;;;;;;5049710;28;20472;-62
2023/06/07 08:44:03;;;;;;;12.48;6.20;;;;;;;;;;5017570;28;20057;-62
2023/06/07 08:46:34;;;;;;;12.98;6.32;;;;;;;;;;5036714;28;20045;-62
2023/06/07 08:49:05;;;;;;;13.88;5.55;;;;;;;;;;5019888;28;20527;-62
2023/06/07 08:51:36;;;;;;;12.00;6.05;;;;;;;;;;5071848;28;20484;-62
2023/06/07 08:54:10;;;;;;;14.55;5.50;;;;;;;;;;5071705;28;20044;-63
2023/06/07 08:56:41;;;;;;;10.25;5.60;;;;;;;;;;5071654;28;20483;-63
2023/06/07 08:59:12;;;;;;;13.05;5.70;;;;;;;;;;5071842;28;20397;-62
2023/06/07 09:01:44;;;;;;;11.50;5.55;;;;;;;;;;5071735;28;20045;-63
2023/06/07 09:04:16;;;;;;;13.63;5.85;;;;;;;;;;5037408;28;20057;-63
2023/06/07 09:06:46;;;;;;;11.82;6.10;;;;;;;;;;5037878;28;20056;-63
2023/06/07 09:09:16;;;;;;;14.73;6.45;;;;;;;;;;5035831;28;20048;-63
2023/06/07 09:11:54;;;;;;;12.93;5.82;;;;;;;;;;5019666;28;20047;-64
2023/06/07 09:14:28;;;;;;;12.15;5.53;;;;;;;;;;5016416;28;20437;-62
2023/06/07 09:16:59;;;;;;;13.27;5.97;;;;;;;;;;5049103;28;20060;-62
2023/06/07 09:19:42;;;;;;;15.73;5.78;;;;;;;;;;4999429;28;20052;-63
2023/06/07 09:22:14;;;;;;;14.07;5.60;;;;;;;;;;5018316;28;20060;-62
2023/06/07 09:24:44;;;;;;;13.55;5.97;;;;;;;;;;5049107;28;20053;-63
2023/06/07 09:27:14;;;;;;;15.13;6.18;;;;;;;;;;5016163;28;20049;-62
2023/06/07 09:29:49;;;;;;;10.50;5.63;;;;;;;;;;5048981;28;20413;-63
2023/06/07 09:32:21;;;;;;;13.80;5.85;;;;;;;;;;5049056;28;20065;-63
2023/06/07 09:34:53;;;;;;;11.45;5.47;;;;;;;;;;4950828;28;20412;-62
2023/06/07 09:37:46;;;;;;;17.20;6.97;;;;;;;;;;5048823;28;20045;-63
2023/06/07 09:40:18;;;;;;;14.35;6.25;;;;;;;;;;5048799;28;20053;-62
2023/06/07 09:42:59;;;;;;;14.18;6.07;;;;;;;;;;4999361;28;20045;-62
2023/06/07 09:45:30;;;;;;;17.63;6.35;;;;;;;;;;5048917;28;20060;-62
2023/06/07 09:48:02;;;;;;;19.25;7.20;;;;;;;;;;4967583;28;20053;-64
2023/06/07 09:50:32;;;;;;;;;;;;;;;;;;5033083;28;20045;-64
2023/06/07 09:53:02;;;;;;;12.65;6.72;;;;;;;;;;5069026;28;19920;-62
2023/06/07 09:55:32;;;;;;;15.38;7.75;;;;;;;;;;4971913;28;20049;-63
2023/06/07 09:58:22;;;;;;;17.20;8.25;;;;;;;;;;5028594;28;20056;-64
2023/06/07 10:00:55;;;;;;;18.98;9.13;;;;;;;;;;4954167;28;20074;-63
2023/06/07 10:03:27;;;;;;;18.10;8.15;;;;;;;;;;4969784;28;20062;-63
2023/06/07 10:05:57;;;;;;;19.27;8.77;;;;;;;;;;4969908;28;20063;-62
2023/06/07 10:08:28;;;;;;;17.17;8.23;;;;;;;;;;4969755;28;20058;-62
2023/06/07 10:10:59;;;;;;;18.00;8.88;;;;;;;;;;4938714;28;20061;-63
2023/06/07 10:13:31;;;;;;;18.42;9.23;;;;;;;;;;4953797;28;20066;-63
2023/06/07 10:16:04;;;;;;;18.23;8.27;;;;;;;;;;4953471;28;20042;-62
2023/06/07 10:18:41;;;;;;;17.67;8.32;;;;;;;;;;4937633;28;20059;-64
2023/06/07 10:21:19;;;;;;;18.27;8.65;;;;;;;;;;4969572;28;20578;-62
2023/06/07 10:24:00;;;;;;;22.17;7.85;;;;;;;;;;4906961;28;20051;-62
2023/06/07 10:26:43;;;;;;;18.02;7.60;;;;;;;;;;4969814;28;20063;-62
2023/06/07 10:29:22;;;;;;;15.55;6.72;;;;;;;;;;4969335;28;20054;-62
2023/06/07 10:32:07;;;;;;;14.80;6.93;;;;;;;;;;4969368;28;20462;-62
2023/06/07 10:34:39;;;;;;;14.32;6.30;;;;;;;;;;4955771;28;20062;-62
2023/06/07 10:37:13;;;;;;;25.27;8.43;;;;;;;;;;4975678;28;20053;-63
2023/06/07 10:39:46;;;;;;;16.27;7.97;;;;;;;;;;5001160;28;20519;-61
2023/06/07 10:42:17;;;;;;;17.02;7.53;;;;;;;;;;5019572;28;20057;-62
2023/06/07 10:44:48;;;;;;;19.60;8.38;;;;;;;;;;5070617;28;20381;-61
2023/06/07 10:47:26;;;;;;;23.30;8.15;;;;;;;;;;5021691;28;20056;-63
2023/06/07 10:49:57;;;;;;;25.45;8.30;;;;;;;;;;5073987;28;20052;-63
2023/06/07 10:52:27;;;;;;;18.98;7.70;;;;;;;;;;5038886;28;20052;-63
2023/06/07 10:54:58;;;;;;;18.20;7.68;;;;;;;;;;5039493;28;20500;-63
2023/06/07 10:57:36;;;;;;;18.05;6.90;;;;;;;;;;5073734;28;20052;-62
2023/06/07 11:00:35;;;;;;;17.05;7.43;;;;;;;;;;5073941;28;20071;-62
2023/06/07 11:03:05;;;;;;;17.42;7.80;;;;;;;;;;5073850;28;20047;-63
2023/06/07 11:05:54;;;;;;;14.35;6.60;;;;;;;;;;5022312;28;20049;-63
2023/06/07 11:08:27;;;;;;;18.23;8.02;;;;;;;;;;5073836;28;20048;-63
2023/06/07 11:11:01;;;;;;;22.77;8.80;;;;;;;;;;5038708;28;20064;-63
2023/06/07 11:13:43;;;;;;;24.52;9.77;;;;;;;;;;5073572;28;20403;-64
2023/06/07 11:16:36;;;;;;;25.85;8.63;;;;;;;;;;5073587;28;20044;-62
2023/06/07 11:19:16;;;;;;;19.02;8.38;;;;;;;;;;4979471;28;20053;-63
2023/06/07 11:21:57;;;;;;;23.08;9.00;;;;;;;;;;5011504;28;20058;-63
2023/06/07 11:24:27;;;;;;;18.65;9.30;;;;;;;;;;4978673;28;20054;-63
2023/06/07 11:26:58;;;;;;;32.20;11.75;;;;;;;;;;5011807;28;20054;-61
2023/06/07 11:29:30;;;;;;;23.05;10.57;;;;;;;;;;4978770;28;20727;-62
2023/06/07 11:32:02;;;;;;;20.38;10.25;;;;;;;;;;5011445;28;20394;-63
2023/06/07 11:34:33;;;;;;;20.42;10.63;;;;;;;;;;5011214;28;20065;-63
2023/06/07 11:37:08;;;;;;;28.23;11.50;;;;;;;;;;5011068;28;20058;-63
2023/06/07 11:39:38;;;;;;;24.20;12.02;;;;;;;;;;4979316;28;20062;-63
2023/06/07 11:42:11;;;;;;;24.45;11.00;;;;;;;;;;4979037;28;20057;-64
2023/06/07 11:44:43;;;;;;;19.73;10.82;;;;;;;;;;4971939;28;20531;-64
2023/06/07 11:47:14;;;;;;;23.95;12.15;;;;;;;;;;4972264;28;20059;-63
2023/06/07 11:49:44;;;;;;;30.55;12.98;;;;;;;;;;4971789;28;20051;-63
2023/06/07 11:52:18;;;;;;;23.45;10.68;;;;;;;;;;4939932;28;20066;-62
2023/06/07 11:54:49;;;;;;;23.80;11.35;;;;;;;;;;4971800;28;20065;-63
2023/06/07 11:57:19;;;;;;;24.88;11.07;;;;;;;;;;5006441;28;20042;-63
2023/06/07 11:59:51;;;;;;;20.13;10.73;;;;;;;;;;5010630;28;20050;-64
2023/06/07 12:02:22;;;;;;;24.02;9.68;;;;;;;;;;5011745;28;20565;-65
2023/06/07 12:04:53;;;;;;;20.70;10.13;;;;;;;;;;5013877;28;20076;-64
2023/06/07 12:07:33;;;;;;;19.55;9.32;;;;;;;;;;5030007;28;20060;-64
2023/06/07 12:10:05;;;;;;;14.52;8.05;;;;;;;;;;4999022;28;20065;-64
2023/06/07 12:12:36;;;;;;;17.75;8.95;;;;;;;;;;5029922;28;20432;-64
2023/06/07 12:15:06;;;;;;;20.23;8.80;;;;;;;;;;5029937;28;20061;-63
2023/06/07 12:17:37;;;;;;;17.00;8.05;;;;;;;;;;5029594;28;20069;-64
2023/06/07 12:20:14;;;;;;;14.32;7.38;;;;;;;;;;4996583;28;20065;-63
2023/06/07 12:22:45;;;;;;;15.23;7.53;;;;;;;;;;5030386;28;20053;-64
2023/06/07 12:25:16;;;;;;;16.23;8.82;;;;;;;;;;5016170;28;20083;-65
2023/06/07 12:27:47;;;;;;;21.00;9.40;;;;;;;;;;5049445;28;20061;-64
2023/06/07 12:30:20;;;;;;;19.38;8.95;;;;;;;;;;5049137;28;20505;-64
2023/06/07 12:32:58;;;;;;;21.90;9.57;;;;;;;;;;5016591;28;20160;-65
2023/06/07 12:35:45;;;;;;;24.00;9.60;;;;;;;;;;4999592;28;20064;-65
2023/06/07 12:38:16;;;;;;;16.40;8.23;;;;;;;;;;5048736;28;20100;-64
2023/06/07 12:40:46;;;;;;;19.23;8.25;;;;;;;;;;5049125;28;20056;-64
2023/06/07 12:43:17;;;;;;;19.25;8.52;;;;;;;;;;5049088;28;20053;-61
2023/06/07 12:45:47;;;;;;;24.17;9.20;;;;;;;;;;5049226;28;20092;-61
2023/06/07 12:48:18;;;;;;;15.98;8.85;;;;;;;;;;5048870;28;20061;-61
2023/06/07 12:50:48;;;;;;;21.00;8.48;;;;;;;;;;5032210;28;20055;-62
2023/06/07 12:53:18;;;;;;;25.05;8.25;;;;;;;;;;5032401;28;20061;-61
2023/06/07 12:55:49;;;;;;;18.30;7.85;;;;;;;;;;5009288;28;20042;-62
2023/06/07 12:58:19;;;;;;;21.92;8.57;;;;;;;;;;5008693;28;20058;-61
2023/06/07 13:00:49;;;;;;;15.05;7.53;;;;;;;;;;5023005;28;20057;-61
2023/06/07 13:03:20;;;;;;;13.23;7.65;;;;;;;;;;5029185;28;20056;-61
2023/06/07 13:05:50;;;;;;;23.52;7.47;;;;;;;;;;5004151;28;20061;-62
2023/06/07 13:08:20;;;;;;;9.23;4.68;;;;;;;;;;5031445;28;20579;-62
2023/06/07 13:10:52;;;;;;;14.25;6.65;;;;;;;;;;5048857;28;20053;-63
2023/06/07 13:13:22;;;;;;;11.50;5.78;;;;;;;;;;5048689;28;20045;-62
2023/06/07 13:15:54;;;;;;;11.82;4.97;;;;;;;;;;4983026;28;20056;-64
2023/06/07 13:18:25;;;;;;;11.35;4.85;;;;;;;;;;4998815;28;20053;-62
2023/06/07 13:20:56;;;;;;;11.63;5.32;;;;;;;;;;4998891;28;20064;-62
2023/06/07 13:23:26;;;;;;;10.15;6.03;;;;;;;;;;5048519;28;20067;-61
2023/06/07 13:25:56;;;;;;;12.27;4.80;;;;;;;;;;5028650;28;20079;-62
2023/06/07 13:28:27;;;;;;;10.48;4.95;;;;;;;;;;5028317;28;20133;-62
2023/06/07 13:30:57;;;;;;;9.88;4.55;;;;;;;;;;5011881;28;20057;-63
2023/06/07 13:33:27;;;;;;;7.00;4.03;;;;;;;;;;5028491;28;20061;-63
2023/06/07 13:35:57;;;;;;;12.73;5.20;;;;;;;;;;4963614;28;20061;-63
2023/06/07 13:38:27;;;;;;;13.35;5.38;;;;;;;;;;5011565;28;20057;-63
2023/06/07 13:40:58;;;;;;;11.07;5.20;;;;;;;;;;5012240;28;20252;-63
2023/06/07 13:43:29;;;;;;;8.05;4.63;;;;;;;;;;4996708;28;20057;-63
2023/06/07 13:46:19;;;;;;;11.68;4.80;;;;;;;;;;5042566;28;20398;-63
2023/06/07 13:48:50;;;;;;;12.45;5.32;;;;;;;;;;5011880;28;20041;-64
2023/06/07 13:51:20;;;;;;;9.63;4.57;;;;;;;;;;5028325;28;20057;-62
2023/06/07 13:53:50;;;;;;;11.82;4.68;;;;;;;;;;5011392;28;20045;-64
2023/06/07 13:56:21;;;;;;;8.07;4.80;;;;;;;;;;5036328;28;20056;-65
2023/06/07 13:58:53;;;;;;;10.63;4.85;;;;;;;;;;5019697;28;20060;-64
2023/06/07 14:01:23;;;;;;;;;;;;;;;;;;5069043;28;20057;-64
2023/06/07 14:03:57;;;;;;;7.82;4.45;;;;;;;;;;5070493;28;19927;-63
2023/06/07 14:06:28;;;;;;;10.52;4.82;;;;;;;;;;5051856;28;20044;-63
2023/06/07 14:08:59;;;;;;;8.23;4.70;;;;;;;;;;5018546;28;20053;-63
2023/06/07 14:11:30;;;;;;;8.43;4.10;;;;;;;;;;5051398;28;20420;-62
2023/06/07 14:14:00;;;;;;;10.82;5.07;;;;;;;;;;5035528;28;20053;-66
2023/06/07 14:16:31;;;;;;;8.77;5.35;;;;;;;;;;5070635;28;20045;-64
2023/06/07 14:19:01;;;;;;;8.30;4.05;;;;;;;;;;5035665;28;20060;-65
2023/06/07 14:21:32;;;;;;;8.93;4.45;;;;;;;;;;5037937;28;20052;-63
2023/06/07 14:24:03;;;;;;;9.18;4.70;;;;;;;;;;5072346;28;20055;-63
2023/06/07 14:26:34;;;;;;;8.02;4.25;;;;;;;;;;5074492;28;20059;-63
2023/06/07 14:29:04;;;;;;;8.88;5.03;;;;;;;;;;5055258;28;20492;-63
2023/06/07 14:31:34;;;;;;;8.45;4.22;;;;;;;;;;5038683;28;20049;-65
2023/06/07 14:34:05;;;;;;;8.52;4.32;;;;;;;;;;5073608;28;20063;-64
2023/06/07 14:36:35;;;;;;;7.85;4.13;;;;;;;;;;5071712;28;20056;-64
2023/06/07 14:39:08;;;;;;;8.20;4.30;;;;;;;;;;5073786;28;20056;-64
2023/06/07 14:41:38;;;;;;;7.22;3.97;;;;;;;;;;5054897;28;20094;-64
2023/06/07 14:44:10;;;;;;;13.90;5.03;;;;;;;;;;5073862;28;20040;-63
2023/06/07 14:46:40;;;;;;;8.15;4.28;;;;;;;;;;5050912;28;20058;-63
2023/06/07 14:49:10;;;;;;;8.25;4.15;;;;;;;;;;5093744;28;20391;-63
2023/06/07 14:51:40;;;;;;;7.88;4.22;;;;;;;;;;5025105;28;20067;-64
2023/06/07 14:54:10;;;;;;;7.82;4.20;;;;;;;;;;5094197;28;20040;-65
2023/06/07 14:56:42;;;;;;;6.40;3.33;;;;;;;;;;5031229;28;20500;-64
2023/06/07 14:59:12;;;;;;;8.40;4.07;;;;;;;;;;4934237;28;20500;-64
2023/06/07 15:01:43;;;;;;;7.40;3.83;;;;;;;;;;4997957;28;20509;-63